sensor_id;sensor_type;location;lat;lon;timestamp;pressure;altitude;pressure_sealevel;temperature;humidity
61359;BME280;47228;46.762;23.598;2022-10-16T00:01:40;97935.96;;;6.54;85.75
61359;BME280;47228;46.762;23.598;2022-10-16T00:04:09;97935.59;;;6.51;85.69
61359;BME280;47228;46.762;23.598;2022-10-16T00:06:38;97938.44;;;6.47;85.55
61359;BME280;47228;46.762;23.598;2022-10-16T00:09:06;97936.12;;;6.44;85.59
61359;BME280;47228;46.762;23.598;2022-10-16T00:11:37;97936.91;;;6.41;85.62
61359;BME280;47228;46.762;23.598;2022-10-16T00:14:08;97940.42;;;6.40;85.62
61359;BME280;47228;46.762;23.598;2022-10-16T00:16:37;97942.83;;;6.37;85.45
61359;BME280;47228;46.762;23.598;2022-10-16T00:19:05;97940.58;;;6.33;85.41
61359;BME280;47228;46.762;23.598;2022-10-16T00:21:33;97936.48;;;6.30;85.62
61359;BME280;47228;46.762;23.598;2022-10-16T00:24:07;97934.80;;;6.28;85.59
61359;BME280;47228;46.762;23.598;2022-10-16T00:26:38;97937.71;;;6.27;85.73
61359;BME280;47228;46.762;23.598;2022-10-16T00:29:06;97937.10;;;6.26;86.00
61359;BME280;47228;46.762;23.598;2022-10-16T00:31:35;97937.83;;;6.26;85.81
61359;BME280;47228;46.762;23.598;2022-10-16T00:34:03;97943.46;;;6.26;85.97
61359;BME280;47228;46.762;23.598;2022-10-16T00:36:31;97946.92;;;6.24;86.02
61359;BME280;47228;46.762;23.598;2022-10-16T00:38:59;97948.03;;;6.20;85.80
61359;BME280;47228;46.762;23.598;2022-10-16T00:41:33;97952.33;;;6.16;85.90
61359;BME280;47228;46.762;23.598;2022-10-16T00:44:40;97952.45;;;6.12;85.75
61359;BME280;47228;46.762;23.598;2022-10-16T00:46:51;97955.73;;;6.07;85.66
61359;BME280;47228;46.762;23.598;2022-10-16T00:49:20;97960.63;;;6.05;86.08
61359;BME280;47228;46.762;23.598;2022-10-16T00:51:53;97955.37;;;6.04;86.12
61359;BME280;47228;46.762;23.598;2022-10-16T00:54:26;97957.23;;;6.04;86.40
61359;BME280;47228;46.762;23.598;2022-10-16T00:56:57;97954.34;;;6.05;86.40
61359;BME280;47228;46.762;23.598;2022-10-16T00:59:38;97953.04;;;6.00;86.22
61359;BME280;47228;46.762;23.598;2022-10-16T01:02:10;97962.63;;;5.98;85.95
61359;BME280;47228;46.762;23.598;2022-10-16T01:04:42;97961.09;;;5.94;86.11
61359;BME280;47228;46.762;23.598;2022-10-16T01:21:21;97955.16;;;5.76;86.34
61359;BME280;47228;46.762;23.598;2022-10-16T01:26:52;97958.75;;;5.70;86.20
61359;BME280;47228;46.762;23.598;2022-10-16T01:32:19;97953.65;;;5.65;86.47
61359;BME280;47228;46.762;23.598;2022-10-16T01:34:54;97957.66;;;5.65;86.33
61359;BME280;47228;46.762;23.598;2022-10-16T01:37:32;97962.07;;;5.63;86.31
61359;BME280;47228;46.762;23.598;2022-10-16T01:40:05;97964.30;;;5.60;86.15
61359;BME280;47228;46.762;23.598;2022-10-16T01:42:37;97966.02;;;5.61;86.73
61359;BME280;47228;46.762;23.598;2022-10-16T01:45:08;97966.58;;;5.62;86.74
61359;BME280;47228;46.762;23.598;2022-10-16T01:47:40;97968.16;;;5.62;86.68
61359;BME280;47228;46.762;23.598;2022-10-16T01:50:09;97965.73;;;5.62;86.71
61359;BME280;47228;46.762;23.598;2022-10-16T01:52:41;97966.58;;;5.61;86.85
61359;BME280;47228;46.762;23.598;2022-10-16T01:55:16;97971.21;;;5.60;87.07
61359;BME280;47228;46.762;23.598;2022-10-16T01:57:47;97973.17;;;5.62;87.34
61359;BME280;47228;46.762;23.598;2022-10-16T02:00:19;97976.11;;;5.63;87.06
61359;BME280;47228;46.762;23.598;2022-10-16T02:02:50;97976.68;;;5.61;86.64
61359;BME280;47228;46.762;23.598;2022-10-16T02:05:26;97975.98;;;5.58;86.48
61359;BME280;47228;46.762;23.598;2022-10-16T02:07:56;97983.90;;;5.55;86.62
61359;BME280;47228;46.762;23.598;2022-10-16T02:10:28;97987.70;;;5.55;86.50
61359;BME280;47228;46.762;23.598;2022-10-16T02:13:05;97993.04;;;5.52;86.06
61359;BME280;47228;46.762;23.598;2022-10-16T02:15:34;97992.88;;;5.47;85.91
61359;BME280;47228;46.762;23.598;2022-10-16T02:18:04;97994.27;;;5.43;86.09
61359;BME280;47228;46.762;23.598;2022-10-16T02:23:18;97995.11;;;5.40;86.48
61359;BME280;47228;46.762;23.598;2022-10-16T02:25:48;97995.32;;;5.38;86.57
61359;BME280;47228;46.762;23.598;2022-10-16T02:28:26;97997.22;;;5.35;86.57
61359;BME280;47228;46.762;23.598;2022-10-16T02:30:57;97999.58;;;5.30;86.47
61359;BME280;47228;46.762;23.598;2022-10-16T02:33:27;97999.16;;;5.27;86.48
61359;BME280;47228;46.762;23.598;2022-10-16T02:35:57;98002.61;;;5.26;86.50
61359;BME280;47228;46.762;23.598;2022-10-16T02:38:25;98005.89;;;5.25;86.20
61359;BME280;47228;46.762;23.598;2022-10-16T02:40:54;98007.60;;;5.24;86.39
61359;BME280;47228;46.762;23.598;2022-10-16T02:43:22;98007.25;;;5.22;86.64
61359;BME280;47228;46.762;23.598;2022-10-16T02:45:50;98007.55;;;5.21;86.86
61359;BME280;47228;46.762;23.598;2022-10-16T02:48:18;98004.66;;;5.22;87.14
61359;BME280;47228;46.762;23.598;2022-10-16T02:50:46;98005.80;;;5.24;87.11
61359;BME280;47228;46.762;23.598;2022-10-16T02:53:13;98008.92;;;5.26;87.01
61359;BME280;47228;46.762;23.598;2022-10-16T02:55:42;98009.27;;;5.28;86.65
61359;BME280;47228;46.762;23.598;2022-10-16T02:58:10;98010.27;;;5.29;86.74
61359;BME280;47228;46.762;23.598;2022-10-16T03:00:38;98011.71;;;5.28;86.68
61359;BME280;47228;46.762;23.598;2022-10-16T03:03:05;98014.44;;;5.27;86.82
61359;BME280;47228;46.762;23.598;2022-10-16T03:05:33;98013.68;;;5.24;86.46
61359;BME280;47228;46.762;23.598;2022-10-16T03:08:01;98012.16;;;5.22;86.51
61359;BME280;47228;46.762;23.598;2022-10-16T03:10:30;98013.30;;;5.21;86.52
61359;BME280;47228;46.762;23.598;2022-10-16T03:12:58;98011.97;;;5.19;86.12
61359;BME280;47228;46.762;23.598;2022-10-16T03:15:26;98011.80;;;5.15;86.49
61359;BME280;47228;46.762;23.598;2022-10-16T03:17:59;98015.20;;;5.12;86.56
61359;BME280;47228;46.762;23.598;2022-10-16T03:20:26;98016.46;;;5.09;86.41
61359;BME280;47228;46.762;23.598;2022-10-16T03:22:54;98016.02;;;5.08;86.69
61359;BME280;47228;46.762;23.598;2022-10-16T03:25:22;98024.64;;;5.08;86.41
61359;BME280;47228;46.762;23.598;2022-10-16T03:27:50;98027.86;;;5.05;86.18
61359;BME280;47228;46.762;23.598;2022-10-16T03:30:18;98027.90;;;5.03;86.25
61359;BME280;47228;46.762;23.598;2022-10-16T03:32:46;98033.46;;;5.03;86.45
61359;BME280;47228;46.762;23.598;2022-10-16T03:35:14;98035.89;;;5.02;86.09
61359;BME280;47228;46.762;23.598;2022-10-16T03:37:42;98043.48;;;4.98;86.11
61359;BME280;47228;46.762;23.598;2022-10-16T03:40:10;98046.61;;;4.95;86.08
61359;BME280;47228;46.762;23.598;2022-10-16T03:42:37;98050.64;;;4.91;86.12
61359;BME280;47228;46.762;23.598;2022-10-16T03:45:05;98056.13;;;4.89;86.25
61359;BME280;47228;46.762;23.598;2022-10-16T03:47:33;98061.73;;;4.87;86.20
61359;BME280;47228;46.762;23.598;2022-10-16T03:50:03;98064.43;;;4.83;86.00
61359;BME280;47228;46.762;23.598;2022-10-16T03:52:31;98066.85;;;4.77;85.78
61359;BME280;47228;46.762;23.598;2022-10-16T03:55:00;98067.55;;;4.74;86.25
61359;BME280;47228;46.762;23.598;2022-10-16T03:57:28;98067.39;;;4.72;86.37
61359;BME280;47228;46.762;23.598;2022-10-16T03:59:56;98069.52;;;4.72;86.41
61359;BME280;47228;46.762;23.598;2022-10-16T04:02:24;98071.20;;;4.72;86.50
61359;BME280;47228;46.762;23.598;2022-10-16T04:04:52;98072.26;;;4.72;86.71
61359;BME280;47228;46.762;23.598;2022-10-16T04:07:20;98075.50;;;4.71;86.82
61359;BME280;47228;46.762;23.598;2022-10-16T04:09:48;98075.79;;;4.70;86.95
61359;BME280;47228;46.762;23.598;2022-10-16T04:12:16;98077.59;;;4.70;86.92
61359;BME280;47228;46.762;23.598;2022-10-16T04:14:44;98080.00;;;4.67;86.69
61359;BME280;47228;46.762;23.598;2022-10-16T04:17:12;98080.83;;;4.65;87.04
61359;BME280;47228;46.762;23.598;2022-10-16T04:19:40;98084.73;;;4.67;86.99
61359;BME280;47228;46.762;23.598;2022-10-16T04:22:08;98086.83;;;4.69;86.78
61359;BME280;47228;46.762;23.598;2022-10-16T04:24:35;98087.29;;;4.69;86.42
61359;BME280;47228;46.762;23.598;2022-10-16T04:27:03;98079.72;;;4.66;86.29
61359;BME280;47228;46.762;23.598;2022-10-16T04:29:31;98078.34;;;4.62;86.40
61359;BME280;47228;46.762;23.598;2022-10-16T04:31:59;98083.63;;;4.60;86.50
61359;BME280;47228;46.762;23.598;2022-10-16T04:34:27;98086.85;;;4.59;86.63
61359;BME280;47228;46.762;23.598;2022-10-16T04:36:54;98087.65;;;4.58;86.62
61359;BME280;47228;46.762;23.598;2022-10-16T04:39:22;98093.00;;;4.57;86.70
61359;BME280;47228;46.762;23.598;2022-10-16T04:41:50;98091.49;;;4.54;86.60
61359;BME280;47228;46.762;23.598;2022-10-16T04:44:18;98091.87;;;4.52;86.44
61359;BME280;47228;46.762;23.598;2022-10-16T04:46:47;98095.86;;;4.49;86.49
61359;BME280;47228;46.762;23.598;2022-10-16T04:49:15;98096.88;;;4.47;86.71
61359;BME280;47228;46.762;23.598;2022-10-16T04:51:43;98095.30;;;4.45;86.77
61359;BME280;47228;46.762;23.598;2022-10-16T04:54:10;98107.49;;;4.44;86.80
61359;BME280;47228;46.762;23.598;2022-10-16T04:56:38;98110.38;;;4.44;86.59
61359;BME280;47228;46.762;23.598;2022-10-16T04:59:15;98105.10;;;4.42;87.05
61359;BME280;47228;46.762;23.598;2022-10-16T05:01:43;98105.09;;;4.42;87.39
61359;BME280;47228;46.762;23.598;2022-10-16T05:04:11;98105.79;;;4.42;87.27
61359;BME280;47228;46.762;23.598;2022-10-16T05:06:39;98108.09;;;4.42;87.47
61359;BME280;47228;46.762;23.598;2022-10-16T05:09:08;98113.10;;;4.41;87.38
61359;BME280;47228;46.762;23.598;2022-10-16T05:11:35;98114.27;;;4.42;87.38
61359;BME280;47228;46.762;23.598;2022-10-16T05:14:03;98119.11;;;4.42;87.30
61359;BME280;47228;46.762;23.598;2022-10-16T05:16:32;98119.96;;;4.43;87.38
61359;BME280;47228;46.762;23.598;2022-10-16T05:18:59;98122.84;;;4.41;87.13
61359;BME280;47228;46.762;23.598;2022-10-16T05:21:47;98126.15;;;4.40;87.06
61359;BME280;47228;46.762;23.598;2022-10-16T05:24:15;98131.91;;;4.40;87.54
61359;BME280;47228;46.762;23.598;2022-10-16T05:26:43;98130.44;;;4.41;87.52
61359;BME280;47228;46.762;23.598;2022-10-16T05:29:11;98136.16;;;4.44;87.76
61359;BME280;47228;46.762;23.598;2022-10-16T05:31:39;98136.79;;;4.46;87.50
61359;BME280;47228;46.762;23.598;2022-10-16T05:34:07;98134.03;;;4.49;87.82
61359;BME280;47228;46.762;23.598;2022-10-16T05:36:35;98137.24;;;4.57;88.34
61359;BME280;47228;46.762;23.598;2022-10-16T05:39:03;98138.30;;;4.64;88.38
61359;BME280;47228;46.762;23.598;2022-10-16T05:41:31;98143.00;;;4.68;88.12
61359;BME280;47228;46.762;23.598;2022-10-16T05:43:59;98147.71;;;4.72;87.80
61359;BME280;47228;46.762;23.598;2022-10-16T05:46:27;98149.52;;;4.75;87.74
61359;BME280;47228;46.762;23.598;2022-10-16T05:48:55;98146.61;;;4.78;87.77
61359;BME280;47228;46.762;23.598;2022-10-16T05:51:22;98147.27;;;4.81;87.88
61359;BME280;47228;46.762;23.598;2022-10-16T05:53:52;98150.88;;;4.83;88.06
61359;BME280;47228;46.762;23.598;2022-10-16T05:56:19;98149.33;;;4.89;88.28
61359;BME280;47228;46.762;23.598;2022-10-16T05:58:47;98152.86;;;4.96;88.42
61359;BME280;47228;46.762;23.598;2022-10-16T06:01:17;98160.07;;;5.05;88.31
61359;BME280;47228;46.762;23.598;2022-10-16T06:03:46;98163.14;;;5.13;88.16
61359;BME280;47228;46.762;23.598;2022-10-16T06:06:16;98168.62;;;5.20;88.08
61359;BME280;47228;46.762;23.598;2022-10-16T06:08:46;98168.02;;;5.26;87.91
61359;BME280;47228;46.762;23.598;2022-10-16T06:11:17;98164.58;;;5.31;87.92
61359;BME280;47228;46.762;23.598;2022-10-16T06:13:45;98165.22;;;5.36;87.40
61359;BME280;47228;46.762;23.598;2022-10-16T06:16:16;98176.56;;;5.40;87.63
61359;BME280;47228;46.762;23.598;2022-10-16T06:18:44;98178.60;;;5.42;87.37
61359;BME280;47228;46.762;23.598;2022-10-16T06:21:16;98180.27;;;5.45;87.46
61359;BME280;47228;46.762;23.598;2022-10-16T06:23:45;98179.38;;;5.46;87.28
61359;BME280;47228;46.762;23.598;2022-10-16T06:26:18;98185.70;;;5.42;87.08
61359;BME280;47228;46.762;23.598;2022-10-16T06:28:47;98184.85;;;5.40;87.22
61359;BME280;47228;46.762;23.598;2022-10-16T06:31:16;98184.79;;;5.40;87.30
61359;BME280;47228;46.762;23.598;2022-10-16T06:33:44;98184.27;;;5.40;87.14
61359;BME280;47228;46.762;23.598;2022-10-16T06:36:15;98185.37;;;5.42;87.32
61359;BME280;47228;46.762;23.598;2022-10-16T06:38:44;98182.70;;;5.46;87.74
61359;BME280;47228;46.762;23.598;2022-10-16T06:41:15;98182.77;;;5.50;87.92
61359;BME280;47228;46.762;23.598;2022-10-16T06:43:44;98182.18;;;5.57;88.23
61359;BME280;47228;46.762;23.598;2022-10-16T06:46:15;98183.65;;;5.63;88.27
61359;BME280;47228;46.762;23.598;2022-10-16T06:48:43;98185.05;;;5.71;88.58
61359;BME280;47228;46.762;23.598;2022-10-16T06:51:14;98187.34;;;5.78;88.58
61359;BME280;47228;46.762;23.598;2022-10-16T06:53:45;98187.58;;;5.82;88.44
61359;BME280;47228;46.762;23.598;2022-10-16T06:56:32;98194.33;;;5.85;88.28
61359;BME280;47228;46.762;23.598;2022-10-16T06:59:01;98199.98;;;5.89;88.36
61359;BME280;47228;46.762;23.598;2022-10-16T07:01:30;98201.13;;;5.88;88.15
61359;BME280;47228;46.762;23.598;2022-10-16T07:03:58;98203.20;;;5.88;88.35
61359;BME280;47228;46.762;23.598;2022-10-16T07:06:31;98204.91;;;5.90;88.38
61359;BME280;47228;46.762;23.598;2022-10-16T07:09:01;98208.98;;;5.92;88.42
61359;BME280;47228;46.762;23.598;2022-10-16T07:11:29;98212.92;;;5.95;88.51
61359;BME280;47228;46.762;23.598;2022-10-16T07:13:57;98215.70;;;6.00;88.81
61359;BME280;47228;46.762;23.598;2022-10-16T07:16:27;98215.81;;;6.03;88.82
61359;BME280;47228;46.762;23.598;2022-10-16T07:18:59;98215.90;;;6.09;89.23
61359;BME280;47228;46.762;23.598;2022-10-16T07:21:31;98214.91;;;6.18;89.20
61359;BME280;47228;46.762;23.598;2022-10-16T07:24:05;98216.45;;;6.25;89.06
61359;BME280;47228;46.762;23.598;2022-10-16T07:26:35;98218.48;;;6.31;89.03
61359;BME280;47228;46.762;23.598;2022-10-16T07:29:03;98219.73;;;6.35;88.48
61359;BME280;47228;46.762;23.598;2022-10-16T07:31:31;98217.92;;;6.33;88.37
61359;BME280;47228;46.762;23.598;2022-10-16T07:34:00;98218.59;;;6.36;88.81
61359;BME280;47228;46.762;23.598;2022-10-16T07:36:28;98220.89;;;6.44;89.33
61359;BME280;47228;46.762;23.598;2022-10-16T07:38:56;98222.30;;;6.53;89.17
61359;BME280;47228;46.762;23.598;2022-10-16T07:41:27;98222.98;;;6.58;88.45
61359;BME280;47228;46.762;23.598;2022-10-16T07:43:56;98227.79;;;6.62;88.38
61359;BME280;47228;46.762;23.598;2022-10-16T07:46:27;98230.94;;;6.65;88.49
61359;BME280;47228;46.762;23.598;2022-10-16T07:48:56;98231.92;;;6.69;88.45
61359;BME280;47228;46.762;23.598;2022-10-16T07:51:25;98233.68;;;6.77;88.54
61359;BME280;47228;46.762;23.598;2022-10-16T07:53:54;98236.27;;;6.84;88.42
61359;BME280;47228;46.762;23.598;2022-10-16T07:56:22;98236.55;;;6.92;88.61
61359;BME280;47228;46.762;23.598;2022-10-16T07:58:51;98236.70;;;7.02;88.80
61359;BME280;47228;46.762;23.598;2022-10-16T08:01:19;98240.36;;;7.09;88.25
61359;BME280;47228;46.762;23.598;2022-10-16T08:03:49;98242.01;;;7.14;88.22
61359;BME280;47228;46.762;23.598;2022-10-16T08:06:20;98239.15;;;7.21;88.47
61359;BME280;47228;46.762;23.598;2022-10-16T08:08:55;98237.02;;;7.29;88.16
61359;BME280;47228;46.762;23.598;2022-10-16T08:11:23;98239.70;;;7.35;88.18
61359;BME280;47228;46.762;23.598;2022-10-16T08:13:51;98237.69;;;7.43;88.41
61359;BME280;47228;46.762;23.598;2022-10-16T08:16:20;98243.25;;;7.52;88.20
61359;BME280;47228;46.762;23.598;2022-10-16T08:18:48;98244.62;;;7.61;88.07
61359;BME280;47228;46.762;23.598;2022-10-16T08:21:17;98245.02;;;7.66;87.23
61359;BME280;47228;46.762;23.598;2022-10-16T08:23:49;98252.59;;;7.71;87.57
61359;BME280;47228;46.762;23.598;2022-10-16T08:26:25;98253.44;;;7.78;87.73
61359;BME280;47228;46.762;23.598;2022-10-16T08:28:54;98254.04;;;7.84;87.75
61359;BME280;47228;46.762;23.598;2022-10-16T08:31:23;98254.08;;;7.90;87.20
61359;BME280;47228;46.762;23.598;2022-10-16T08:33:51;98251.66;;;7.98;87.75
61359;BME280;47228;46.762;23.598;2022-10-16T08:36:20;98249.27;;;8.07;87.52
61359;BME280;47228;46.762;23.598;2022-10-16T08:38:49;98248.80;;;8.15;87.22
61359;BME280;47228;46.762;23.598;2022-10-16T08:49:34;98251.19;;;8.49;86.05
61359;BME280;47228;46.762;23.598;2022-10-16T08:52:02;98249.12;;;8.57;86.12
61359;BME280;47228;46.762;23.598;2022-10-16T08:54:41;98249.73;;;8.64;85.63
61359;BME280;47228;46.762;23.598;2022-10-16T08:57:17;98256.75;;;8.70;85.31
61359;BME280;47228;46.762;23.598;2022-10-16T08:59:57;98257.58;;;8.72;84.80
61359;BME280;47228;46.762;23.598;2022-10-16T09:02:35;98255.88;;;8.76;84.81
61359;BME280;47228;46.762;23.598;2022-10-16T09:05:28;98259.11;;;8.81;84.85
61359;BME280;47228;46.762;23.598;2022-10-16T09:13:29;98265.04;;;8.89;84.02
61359;BME280;47228;46.762;23.598;2022-10-16T09:16:11;98268.27;;;8.95;84.51
61359;BME280;47228;46.762;23.598;2022-10-16T09:18:51;98269.54;;;9.05;84.37
61359;BME280;47228;46.762;23.598;2022-10-16T09:21:33;98267.45;;;9.14;84.15
61359;BME280;47228;46.762;23.598;2022-10-16T09:24:24;98267.27;;;9.24;84.33
61359;BME280;47228;46.762;23.598;2022-10-16T09:26:56;98266.77;;;9.33;84.13
61359;BME280;47228;46.762;23.598;2022-10-16T09:29:24;98267.38;;;9.39;83.68
61359;BME280;47228;46.762;23.598;2022-10-16T09:31:55;98265.52;;;9.46;83.88
61359;BME280;47228;46.762;23.598;2022-10-16T09:34:35;98270.02;;;9.55;84.08
61359;BME280;47228;46.762;23.598;2022-10-16T09:37:09;98270.60;;;9.64;84.14
61359;BME280;47228;46.762;23.598;2022-10-16T09:39:52;98272.48;;;9.71;83.78
61359;BME280;47228;46.762;23.598;2022-10-16T09:42:26;98275.58;;;9.75;83.77
61359;BME280;47228;46.762;23.598;2022-10-16T09:44:56;98277.85;;;9.78;83.73
61359;BME280;47228;46.762;23.598;2022-10-16T09:47:26;98277.39;;;9.80;83.77
61359;BME280;47228;46.762;23.598;2022-10-16T09:49:57;98276.13;;;9.82;83.84
61359;BME280;47228;46.762;23.598;2022-10-16T09:52:29;98274.00;;;9.87;84.03
61359;BME280;47228;46.762;23.598;2022-10-16T09:55:13;98269.45;;;9.93;84.20
61359;BME280;47228;46.762;23.598;2022-10-16T09:57:52;98262.06;;;10.00;84.26
61359;BME280;47228;46.762;23.598;2022-10-16T10:00:21;98259.78;;;10.09;84.24
61359;BME280;47228;46.762;23.598;2022-10-16T10:02:51;98258.65;;;10.18;84.04
61359;BME280;47228;46.762;23.598;2022-10-16T10:05:28;98260.83;;;10.24;83.45
61359;BME280;47228;46.762;23.598;2022-10-16T10:08:01;98261.83;;;10.27;83.51
61359;BME280;47228;46.762;23.598;2022-10-16T10:10:38;98260.02;;;10.34;83.74
61359;BME280;47228;46.762;23.598;2022-10-16T10:13:22;98258.73;;;10.43;84.03
61359;BME280;47228;46.762;23.598;2022-10-16T10:15:52;98254.75;;;10.53;83.84
61359;BME280;47228;46.762;23.598;2022-10-16T10:18:22;98254.08;;;10.59;83.58
61359;BME280;47228;46.762;23.598;2022-10-16T10:21:01;98253.75;;;10.65;83.71
61359;BME280;47228;46.762;23.598;2022-10-16T10:23:31;98250.95;;;10.73;83.64
61359;BME280;47228;46.762;23.598;2022-10-16T10:31:26;98242.60;;;10.87;83.41
61359;BME280;47228;46.762;23.598;2022-10-16T10:37:27;98233.42;;;11.01;83.07
61359;BME280;47228;46.762;23.598;2022-10-16T10:42:49;98225.38;;;11.18;83.32
61359;BME280;47228;46.762;23.598;2022-10-16T10:48:10;98218.09;;;11.42;83.06
61359;BME280;47228;46.762;23.598;2022-10-16T10:50:47;98213.23;;;11.59;82.96
61359;BME280;47228;46.762;23.598;2022-10-16T10:53:36;98214.52;;;11.70;82.41
61359;BME280;47228;46.762;23.598;2022-10-16T11:01:09;98201.45;;;12.12;82.19
61359;BME280;47228;46.762;23.598;2022-10-16T11:06:39;98197.23;;;12.40;82.12
61359;BME280;47228;46.762;23.598;2022-10-16T11:09:24;98197.36;;;12.58;81.89
61359;BME280;47228;46.762;23.598;2022-10-16T11:12:01;98195.77;;;12.72;81.77
61359;BME280;47228;46.762;23.598;2022-10-16T11:14:38;98196.19;;;12.84;81.20
61359;BME280;47228;46.762;23.598;2022-10-16T11:17:15;98191.86;;;12.96;81.16
61359;BME280;47228;46.762;23.598;2022-10-16T11:19:54;98188.52;;;13.08;81.08
61359;BME280;47228;46.762;23.598;2022-10-16T11:22:33;98184.21;;;13.20;80.75
61359;BME280;47228;46.762;23.598;2022-10-16T11:25:34;98178.98;;;13.31;80.63
61359;BME280;47228;46.762;23.598;2022-10-16T11:28:14;98179.89;;;13.45;80.39
61359;BME280;47228;46.762;23.598;2022-10-16T11:30:54;98179.20;;;13.56;80.25
61359;BME280;47228;46.762;23.598;2022-10-16T11:44:38;98172.02;;;14.01;78.62
61359;BME280;47228;46.762;23.598;2022-10-16T11:55:44;98175.36;;;14.28;76.71
61359;BME280;47228;46.762;23.598;2022-10-16T11:58:33;98173.48;;;14.35;76.04
61359;BME280;47228;46.762;23.598;2022-10-16T12:06:17;98174.88;;;14.57;75.06
61359;BME280;47228;46.762;23.598;2022-10-16T12:08:52;98173.86;;;14.65;74.41
61359;BME280;47228;46.762;23.598;2022-10-16T12:16:37;98173.23;;;14.83;72.35
61359;BME280;47228;46.762;23.598;2022-10-16T12:19:15;98174.63;;;14.88;71.92
61359;BME280;47228;46.762;23.598;2022-10-16T12:21:44;98173.62;;;14.91;71.77
61359;BME280;47228;46.762;23.598;2022-10-16T12:24:37;98174.59;;;14.94;71.13
61359;BME280;47228;46.762;23.598;2022-10-16T12:27:28;98171.20;;;14.98;70.58
61359;BME280;47228;46.762;23.598;2022-10-16T12:30:04;98169.80;;;15.02;70.32
61359;BME280;47228;46.762;23.598;2022-10-16T12:32:35;98170.81;;;15.05;69.57
61359;BME280;47228;46.762;23.598;2022-10-16T12:35:26;98170.59;;;15.09;68.46
61359;BME280;47228;46.762;23.598;2022-10-16T12:38:05;98168.16;;;15.14;68.47
61359;BME280;47228;46.762;23.598;2022-10-16T12:40:35;98164.05;;;15.17;68.12
61359;BME280;47228;46.762;23.598;2022-10-16T12:48:38;98164.42;;;15.24;66.74
61359;BME280;47228;46.762;23.598;2022-10-16T12:54:12;98163.31;;;15.30;66.82
61359;BME280;47228;46.762;23.598;2022-10-16T13:19:38;98184.05;;;15.33;65.74
61359;BME280;47228;46.762;23.598;2022-10-16T13:28:21;98181.73;;;15.35;63.74
61359;BME280;47228;46.762;23.598;2022-10-16T13:30:54;98179.80;;;15.36;63.60
61359;BME280;47228;46.762;23.598;2022-10-16T13:33:33;98182.30;;;15.37;63.28
61359;BME280;47228;46.762;23.598;2022-10-16T13:36:04;98184.52;;;15.38;63.64
61359;BME280;47228;46.762;23.598;2022-10-16T13:38:34;98188.48;;;15.37;64.28
61359;BME280;47228;46.762;23.598;2022-10-16T13:41:13;98187.38;;;15.37;63.76
61359;BME280;47228;46.762;23.598;2022-10-16T13:43:52;98188.23;;;15.35;63.44
61359;BME280;47228;46.762;23.598;2022-10-16T13:46:24;98187.36;;;15.33;63.57
61359;BME280;47228;46.762;23.598;2022-10-16T13:49:03;98186.73;;;15.31;63.47
61359;BME280;47228;46.762;23.598;2022-10-16T13:51:32;98189.80;;;15.29;64.12
61359;BME280;47228;46.762;23.598;2022-10-16T13:54:00;98191.58;;;15.27;64.03
61359;BME280;47228;46.762;23.598;2022-10-16T13:56:31;98194.67;;;15.23;63.55
61359;BME280;47228;46.762;23.598;2022-10-16T13:59:02;98195.98;;;15.21;63.41
61359;BME280;47228;46.762;23.598;2022-10-16T14:01:34;98199.44;;;15.18;62.75
61359;BME280;47228;46.762;23.598;2022-10-16T14:04:08;98203.98;;;15.14;62.61
61359;BME280;47228;46.762;23.598;2022-10-16T14:06:41;98207.16;;;15.10;62.96
61359;BME280;47228;46.762;23.598;2022-10-16T14:11:57;98205.55;;;15.02;63.20
61359;BME280;47228;46.762;23.598;2022-10-16T14:14:35;98208.40;;;14.96;63.21
61359;BME280;47228;46.762;23.598;2022-10-16T14:17:14;98207.23;;;14.90;62.54
61359;BME280;47228;46.762;23.598;2022-10-16T14:19:46;98209.75;;;14.85;63.04
61359;BME280;47228;46.762;23.598;2022-10-16T14:22:33;98211.59;;;14.79;63.07
61359;BME280;47228;46.762;23.598;2022-10-16T14:28:18;98214.59;;;14.65;63.54
61359;BME280;47228;46.762;23.598;2022-10-16T14:30:56;98214.81;;;14.55;63.95
61359;BME280;47228;46.762;23.598;2022-10-16T14:36:03;98215.32;;;14.39;63.98
61359;BME280;47228;46.762;23.598;2022-10-16T14:38:32;98218.29;;;14.31;64.12
61359;BME280;47228;46.762;23.598;2022-10-16T14:41:01;98219.98;;;14.24;64.60
61359;BME280;47228;46.762;23.598;2022-10-16T14:43:33;98223.39;;;14.16;64.32
61359;BME280;47228;46.762;23.598;2022-10-16T14:46:03;98223.02;;;14.07;64.76
61359;BME280;47228;46.762;23.598;2022-10-16T14:48:34;98216.31;;;14.00;65.01
61359;BME280;47228;46.762;23.598;2022-10-16T14:51:02;98218.14;;;13.94;65.44
61359;BME280;47228;46.762;23.598;2022-10-16T14:53:30;98218.92;;;13.90;66.00
61359;BME280;47228;46.762;23.598;2022-10-16T14:55:58;98218.30;;;13.85;65.75
61359;BME280;47228;46.762;23.598;2022-10-16T14:58:33;98217.59;;;13.79;66.17
61359;BME280;47228;46.762;23.598;2022-10-16T15:01:02;98215.99;;;13.74;66.37
61359;BME280;47228;46.762;23.598;2022-10-16T15:03:30;98220.20;;;13.69;66.59
61359;BME280;47228;46.762;23.598;2022-10-16T15:05:58;98222.09;;;13.63;66.70
61359;BME280;47228;46.762;23.598;2022-10-16T15:08:25;98224.08;;;13.57;66.94
61359;BME280;47228;46.762;23.598;2022-10-16T15:10:53;98226.69;;;13.52;67.14
61359;BME280;47228;46.762;23.598;2022-10-16T15:13:21;98226.86;;;13.46;67.62
61359;BME280;47228;46.762;23.598;2022-10-16T15:15:49;98229.09;;;13.41;67.87
61359;BME280;47228;46.762;23.598;2022-10-16T15:18:17;98231.34;;;13.35;67.83
61359;BME280;47228;46.762;23.598;2022-10-16T15:20:49;98232.05;;;13.29;67.62
61359;BME280;47228;46.762;23.598;2022-10-16T15:23:19;98230.27;;;13.25;67.77
61359;BME280;47228;46.762;23.598;2022-10-16T15:25:52;98233.61;;;13.21;68.08
61359;BME280;47228;46.762;23.598;2022-10-16T15:28:22;98237.61;;;13.16;68.25
61359;BME280;47228;46.762;23.598;2022-10-16T15:30:55;98236.95;;;13.12;68.31
61359;BME280;47228;46.762;23.598;2022-10-16T15:33:26;98238.35;;;13.06;68.38
61359;BME280;47228;46.762;23.598;2022-10-16T15:36:06;98237.33;;;12.99;68.49